Sinclair, Maine
Current Conditions -  °F | °C
As of 9:07 AM on Wednesday 28 Jan 2015 (Local Time) from KFVE Reporting Station
Light Snow Light Snow  
Wind Chill: -13°   Ceiling: 2100
Heat Index:   Visibility: 2mi
Dew Point:   Wind: 18mph
Humidity: 80%   Direction: 330°NNW
Pressure: 29.84"   Gusts: 25mph
Location:  47.17°N, 68.27°W
Report Text: KFVE 281407Z AUTO 33016G22KT 2SM -SN OVC021 M14/M17 A2984 RMK AO2 P0000 T11441172
Loading
Personal Weather Stations






























Interactive Weather Map New forecast layout! Learn more

10-Day Weather Forecast

Advertisements
Track Severe Weather on mobile